Flight Track Log - Related Links

Times and Time Zones

All times are in EDT time to prevent confusion due to time zone crossing. See the N72AF flight status page for this flight to view local times or setup timezone preferences in your user account.

Time Position Orientation Groundspeed Altitude Reporting Facility
EDT Latitude Longitude Course Direction KTS MPH feet Rate Location/Type
Fri 10:08:05 AM 30.5961 -91.2378 296° West 123 142 6,600  Level Houston Center
Fri 10:09:07 AM 30.6097 -91.2733 294° West 123 142 6,500 -48 Descending Houston Center
Fri 10:10:10 AM 30.6258 -91.3075 299° West 122 140 6,500  Level Houston Center
Fri 10:11:12 AM 30.6433 -91.3414 301° West 122 140 6,500  Level Houston Center
Fri 10:12:00 AM 30.6315 -91.3567 297° West  Level FlightAware Approximate
Fri 10:12:14 AM 30.6661 -91.3803 304° West 122 140 6,500  Level Houston Center
Fri 10:12:36 AM 30.6728 -91.3931 301° West 120 138 6,400  Descending Houston Center
Fri 10:13:00 AM 30.6481 -91.3956 296° West  Level FlightAware Approximate
Fri 10:13:16 AM 30.6861 -91.4142 306° West 122 140 6,500  Level Houston Center
Fri 10:14:06 AM 30.6997 -91.4436 298° West 122 140 6,400  Descending Houston Center
Fri 10:14:18 AM 30.6994 -91.4503 267° West 122 140 6,500  Climbing Houston Center
Fri 10:14:49 AM 30.7097 -91.4669 306° West 121 139 6,400  Descending Houston Center
Fri 10:15:20 AM 30.7189 -91.4825 304° West 122 140 6,500  Climbing Houston Center
Fri 10:15:50 AM 30.7292 -91.5014 302° West 122 140 6,400  Descending Houston Center
Fri 10:16:23 AM 30.7400 -91.5142 315° West 122 140 6,500  Climbing Houston Center
Fri 10:16:50 AM 30.7503 -91.5333 302° West 122 140 6,400  Descending Houston Center
Fri 10:17:25 AM 30.7581 -91.5478 302° West 122 140 6,500  Climbing Houston Center
Fri 10:17:51 AM 30.7656 -91.5681 293° West 124 143 6,400  Descending Houston Center
Fri 10:18:27 AM 30.7697 -91.5847 286° West 122 140 6,500  Climbing Houston Center
Fri 10:18:58 AM 30.7769 -91.6083 290° West 121 139 6,400  Descending Houston Center
Fri 10:19:29 AM 30.7842 -91.6283 293° West 122 140 6,500  Climbing Houston Center
Fri 10:19:59 AM 30.7903 -91.6458 292° West 120 138 6,400  Descending Houston Center
Fri 10:20:31 AM 30.7981 -91.6639 297° West 121 139 6,500  Climbing Houston Center
Fri 10:20:53 AM 30.8031 -91.6783 292° West 121 139 6,400 -97 Descending Houston Center
Fri 10:21:33 AM 30.8117 -91.6994 295° West 121 139 6,400 -98 Level Houston Center
Fri 10:21:54 AM 30.8161 -91.7136 290° West 121 139 6,300 95 Descending Houston Center
Fri 10:22:36 AM 30.8242 -91.7353 293° West 121 139 6,500 98 Climbing Houston Center
Fri 10:22:55 AM 30.8292 -91.7486 294° West 119 137 6,400  Descending Houston Center
Fri 10:23:38 AM 30.8336 -91.7717 283° West 119 137 6,500 98 Climbing Houston Center
Fri 10:23:56 AM 30.8403 -91.7864 298° West 118 136 6,500 97 Level Houston Center
Fri 10:24:40 AM 30.8469 -91.8061 291° West 119 137 6,600  Climbing Houston Center
Fri 10:25:03 AM 30.8536 -91.8264 291° West 119 137 6,500  Descending Houston Center
Fri 10:25:42 AM 30.8586 -91.8503 284° West 119 137 6,600  Climbing Houston Center
Fri 10:26:03 AM 30.8625 -91.8619 291° West 117 135 6,500  Descending Houston Center
Fri 10:26:44 AM 30.8708 -91.8853 293° West 118 136 6,600  Climbing Houston Center
Fri 10:27:04 AM 30.8778 -91.8994 300° West 116 133 6,500  Descending Houston Center
Fri 10:27:46 AM 30.8878 -91.9197 300° West 119 137 6,600  Climbing Houston Center
Fri 10:27:59 AM 30.8922 -91.9272 305° West 119 137 6,500  Descending Houston Center
Fri 10:28:49 AM 30.8942 -91.9553 275° West 118 136 6,600  Climbing Houston Center
Fri 10:28:59 AM 30.8908 -91.9661 250° West 118 136 6,500  Descending Houston Center
Fri 10:29:51 AM 30.8986 -91.9908 290° West 115 132 6,600  Climbing Houston Center
Fri 10:30:18 AM 30.9086 -92.0106 301° West 117 135 6,500  Descending Houston Center
Fri 10:30:53 AM 30.9203 -92.0314 303° West 119 137 6,600  Climbing Houston Center
Fri 10:31:13 AM 30.9256 -92.0406 304° West 119 137 6,500  Descending Houston Center
Fri 10:31:55 AM 30.9378 -92.0636 302° West 119 137 6,600  Climbing Houston Center
Fri 10:32:13 AM 30.9444 -92.0728 310° West 121 139 6,500  Descending Houston Center
Fri 10:32:57 AM 30.9558 -92.0958 300° West 120 138 6,600  Climbing Houston Center
Fri 10:33:14 AM 30.9617 -92.1078 300° West 119 137 6,500  Descending Houston Center
Fri 10:33:59 AM 30.9742 -92.1289 305° West 119 137 6,600  Climbing Houston Center
Fri 10:34:15 AM 30.9786 -92.1400 295° West 119 137 6,500  Descending Houston Center
Fri 10:35:01 AM 30.9906 -92.1614 303° West 119 137 6,600 100 Climbing Houston Center
Fri 10:35:15 AM 30.9958 -92.1750 294° West 120 138 6,600 95 Level Houston Center
Fri 10:36:04 AM 31.0050 -92.1964 297° West 119 137 6,700  Climbing Houston Center
Fri 10:36:16 AM 31.0106 -92.2078 300° West 117 135 6,600  Descending Houston Center
Fri 10:37:06 AM 31.0275 -92.2342 307° West 119 137 6,700  Climbing Houston Center
Fri 10:38:11 AM 31.0464 -92.2700 302° West 119 137 6,600  Descending Houston Center
Fri 10:39:10 AM 31.0567 -92.3022 290° West 119 137 6,700 99 Climbing Houston Center
Fri 10:40:12 AM 31.0717 -92.3347 298° West 118 136 6,800  Climbing Houston Center
Fri 10:41:13 AM 31.0908 -92.3706 302° West 118 136 6,700 -149 Descending Houston Center
Fri 10:42:13 AM 31.1097 -92.4028 304° West 123 142 6,500 -149 Descending Houston Center
Fri 10:43:14 AM 31.1331 -92.4372 308° West 128 147 6,400 -98 Descending Houston Center
Fri 10:44:15 AM 31.1583 -92.4692 313° West 125 144 6,300 -99 Descending Houston Center
Fri 10:45:15 AM 31.1789 -92.4964 311° West 122 140 6,200 -50 Descending Houston Center
Fri 10:46:16 AM 31.2000 -92.5286 307° West 120 138 6,200  Level Houston Center
Fri 10:47:22 AM 31.2231 -92.5631 308° West 120 138 6,200 94 Level Houston Center
Fri 10:48:23 AM 31.2378 -92.5933 300° West 107 123 6,400 148 Climbing Houston Center
Fri 10:49:24 AM 31.2525 -92.6261 298° West 112 129 6,500 50 Climbing Houston Center
Fri 10:50:24 AM 31.2672 -92.6589 298° West 115 132 6,500 86 Level Houston Center
Fri 10:50:34 AM 31.2683 -92.6642 284° West 111 128 6,600 98 Climbing Houston Center
Fri 10:51:25 AM 31.2781 -92.6947 290° West 114 131 6,600 97 Level Houston Center
Fri 10:51:36 AM 31.2800 -92.6989 299° West 111 128 6,700  Climbing Houston Center
Fri 10:52:26 AM 31.2925 -92.7275 297° West 114 131 6,600  Descending Houston Center
Fri 10:52:38 AM 31.2964 -92.7308 324° Northwest 112 129 6,700  Climbing Houston Center
Fri 10:53:26 AM 31.3094 -92.7600 298° West 116 133 6,600  Descending Houston Center
Fri 10:53:40 AM 31.3133 -92.7636 322° Northwest 114 131 6,700 98 Climbing Houston Center
Fri 10:54:27 AM 31.3281 -92.7903 303° West 117 135 6,700 97 Level Houston Center
Fri 10:54:42 AM 31.3325 -92.7939 325° Northwest 115 132 6,800  Climbing Houston Center
Fri 10:55:27 AM 31.3469 -92.8228 300° West 115 132 6,700  Descending Houston Center
Fri 10:55:45 AM 31.3494 -92.8258 314° West 114 131 6,800 -90 Climbing Houston Center
Fri 10:56:34 AM 31.3661 -92.8600 300° West 117 135 6,600 -97 Descending Houston Center
Fri 10:56:47 AM 31.3692 -92.8664 299° West 116 133 6,700 -98 Climbing Houston Center
Fri 10:57:35 AM 31.3828 -92.8903 304° West 122 140 6,500 -97 Descending Houston Center
Fri 10:57:49 AM 31.3883 -92.8992 306° West 118 136 6,600 -91 Climbing Houston Center
Fri 10:58:41 AM 31.4039 -92.9275 303° West 122 140 6,400 -97 Descending Houston Center
Fri 10:58:51 AM 31.4069 -92.9311 315° West 119 137 6,500  Climbing Houston Center
Fri 10:59:36 AM 31.4206 -92.9603 299° West 120 138 6,400  Descending Houston Center
Fri 10:59:53 AM 31.4231 -92.9644 305° West 118 136 6,500 76 Climbing Houston Center
Fri 11:00:55 AM 31.4383 -92.9989 297° West 118 136 6,500 -70 Level Houston Center
Fri 11:01:19 AM 31.4472 -93.0167 300° West 117 135 6,400 97 Descending Houston Center
Fri 11:01:57 AM 31.4556 -93.0314 304° West 118 136 6,600 197 Climbing Houston Center
Fri 11:02:20 AM 31.4639 -93.0494 298° West 114 131 6,600 -95 Level Houston Center
Fri 11:03:00 AM 31.4747 -93.0694 302° West 117 135 6,500  Descending Houston Center
Fri 11:03:21 AM 31.4825 -93.0794 312° West 116 133 6,600 97 Climbing Houston Center
Fri 11:04:02 AM 31.4961 -93.0967 313° West 115 132 6,600  Level Houston Center
Fri 11:04:21 AM 31.5011 -93.1097 294° West 114 131 6,600  Level Houston Center
Fri 11:05:04 AM 31.5100 -93.1306 297° West 115 132 6,600 -98 Level Houston Center
Fri 11:05:22 AM 31.5158 -93.1428 299° West 116 133 6,500 -97 Descending Houston Center
Fri 11:06:06 AM 31.5253 -93.1653 296° West 116 133 6,500  Level Houston Center
Fri 11:06:23 AM 31.5306 -93.1781 296° West 116 133 6,500  Level Houston Center
Fri 11:07:08 AM 31.5403 -93.1981 300° West 116 133 6,500  Level Houston Center
Fri 11:07:24 AM 31.5453 -93.2136 291° West 115 132 6,500  Level Houston Center
Fri 11:08:10 AM 31.5542 -93.2389 292° West 115 132 6,500  Level Houston Center
Fri 11:08:30 AM 31.5603 -93.2539 296° West 115 132 6,500  Level Houston Center
Fri 11:09:12 AM 31.5689 -93.2739 297° West 117 135 6,500  Level Houston Center
Fri 11:09:31 AM 31.5725 -93.2847 291° West 114 131 6,500  Level Houston Center
Fri 11:10:15 AM 31.5811 -93.3075 294° West 116 133 6,500  Level Houston Center
Fri 11:10:32 AM 31.5831 -93.3203 280° West 112 129 6,500  Level Houston Center
Fri 11:11:17 AM 31.5914 -93.3419 294° West 115 132 6,500  Level Houston Center
Fri 11:11:33 AM 31.5956 -93.3536 293° West 114 131 6,500  Level Houston Center
Fri 11:12:19 AM 31.6056 -93.3750 299° West 114 131 6,500  Level Houston Center
Fri 11:12:33 AM 31.6103 -93.3892 291° West 115 132 6,500  Level Houston Center
Fri 11:13:21 AM 31.6200 -93.4081 301° West 114 131 6,500  Level Houston Center
Fri 11:13:34 AM 31.6250 -93.4247 289° West 115 132 6,500  Level Houston Center
Fri 11:14:23 AM 31.6328 -93.4514 289° West 117 135 6,500  Level Houston Center
Fri 11:15:25 AM 31.6469 -93.4836 297° West 113 130 6,500  Level Houston Center
Fri 11:16:28 AM 31.6594 -93.5175 293° West 113 130 6,500 48 Level Houston Center
Fri 11:17:30 AM 31.6756 -93.5500 300° West 113 130 6,600 48 Climbing Houston Center
Fri 11:18:32 AM 31.6892 -93.5822 296° West 113 130 6,600  Level Houston Center
Fri 11:19:34 AM 31.7025 -93.6175 294° West 113 130 6,600  Level Houston Center
Fri 11:20:36 AM 31.7175 -93.6506 298° West 113 130 6,600 48 Level Houston Center
Fri 11:21:38 AM 31.7300 -93.6919 290° West 113 130 6,700 48 Climbing Houston Center
Fri 11:22:41 AM 31.7422 -93.7253 293° West 113 130 6,700  Level Houston Center
Fri 11:23:43 AM 31.7542 -93.7592 293° West 113 130 6,700  Level Houston Center
Fri 11:24:45 AM 31.7683 -93.7928 296° West 113 130 6,700  Level Houston Center
Fri 11:25:47 AM 31.7814 -93.8275 294° West 115 132 6,700  Level Houston Center
Fri 11:26:49 AM 31.7994 -93.8653 299° West 116 133 6,700 -48 Level Houston Center
Fri 11:27:51 AM 31.8122 -93.9000 293° West 115 132 6,600 -96 Descending Houston Center
Fri 11:28:54 AM 31.8261 -93.9347 295° West 117 135 6,500 -48 Descending Houston Center
Fri 11:29:56 AM 31.8397 -93.9706 294° West 118 136 6,500  Level Houston Center
Fri 11:30:58 AM 31.8567 -94.0114 296° West 116 133 6,500  Level Houston Center
Fri 11:32:00 AM 31.8700 -94.0450 295° West 116 133 6,500 48 Level Houston Center
Fri 11:33:02 AM 31.8822 -94.0789 293° West 116 133 6,600 48 Climbing Houston Center
Fri 11:34:04 AM 31.8942 -94.1131 292° West 115 132 6,600 40 Level Houston Center
Fri 11:35:31 AM 31.9133 -94.1619 295° West 113 130 6,700 40 Climbing Fort Worth Center
Fri 11:36:33 AM 31.9283 -94.2003 295° West 114 131 6,700 -48 Level Fort Worth Center
Fri 11:37:35 AM 31.9383 -94.2367 288° West 115 132 6,600 -48 Descending Fort Worth Center
Fri 11:38:38 AM 31.9494 -94.2756 289° West 115 132 6,600 48 Level Fort Worth Center
Fri 11:39:40 AM 31.9564 -94.3111 283° West 115 132 6,700 48 Climbing Fort Worth Center
Fri 11:40:42 AM 31.9697 -94.3492 292° West 115 132 6,700 -97 Level Fort Worth Center
Fri 11:41:44 AM 31.9831 -94.3828 295° West 121 139 6,500 -97 Descending Fort Worth Center
Fri 11:42:46 AM 31.9953 -94.4186 292° West 121 139 6,500  Level Fort Worth Center
Fri 11:43:48 AM 32.0075 -94.4533 293° West 120 138 6,500 48 Level Fort Worth Center
Fri 11:44:50 AM 32.0222 -94.4958 292° West 120 138 6,600  Climbing Fort Worth Center
Fri 11:45:52 AM 32.0378 -94.5306 298° West 120 138 6,500 -48 Descending Fort Worth Center
Fri 11:46:54 AM 32.0511 -94.5644 295° West 119 137 6,500  Level Fort Worth Center
Fri 11:47:57 AM 32.0661 -94.5992 297° West 119 137 6,500 -48 Level Fort Worth Center
Fri 11:48:59 AM 32.0808 -94.6325 298° West 119 137 6,400  Descending Fort Worth Center
Fri 11:50:01 AM 32.0958 -94.6686 296° West 119 137 6,500 97 Climbing Fort Worth Center
Fri 11:51:03 AM 32.1128 -94.7081 297° West 118 136 6,600 48 Climbing Fort Worth Center
Fri 11:52:05 AM 32.1236 -94.7425 290° West 117 135 6,600  Level Fort Worth Center
Fri 11:53:07 AM 32.1375 -94.7761 296° West 116 133 6,600  Level Fort Worth Center
Fri 11:54:09 AM 32.1522 -94.8094 298° West 115 132 6,600  Level Fort Worth Center
Fri 11:55:11 AM 32.1697 -94.8428 302° West 115 132 6,600 -48 Level Fort Worth Center
Fri 11:56:13 AM 32.1894 -94.8828 300° West 117 135 6,500 -48 Descending Fort Worth Center
Fri 11:57:15 AM 32.2008 -94.9164 292° West 116 133 6,500  Level Fort Worth Center
Fri 11:58:18 AM 32.2128 -94.9489 293° West 116 133 6,500  Level Fort Worth Center
Fri 11:59:20 AM 32.2281 -94.9858 296° West 116 133 6,500 48 Level Fort Worth Center
Fri 12:00:22 PM 32.2428 -95.0189 298° West 116 133 6,600 48 Climbing Fort Worth Center
Fri 12:01:24 PM 32.2569 -95.0547 295° West 116 133 6,600  Level Fort Worth Center
Fri 12:02:26 PM 32.2711 -95.0975 291° West 117 135 6,600  Level Fort Worth Center
Fri 12:03:28 PM 32.2831 -95.1344 291° West 117 135 6,600  Level Fort Worth Center
Fri 12:04:30 PM 32.2975 -95.1694 296° West 117 135 6,600 -48 Level Fort Worth Center
Fri 12:05:32 PM 32.3117 -95.2036 296° West 117 135 6,500  Descending Fort Worth Center
Fri 12:06:34 PM 32.3256 -95.2400 294° West 117 135 6,600 48 Climbing Fort Worth Center
Fri 12:07:36 PM 32.3392 -95.2756 294° West 119 137 6,600 -48 Level Fort Worth Center
Fri 12:08:39 PM 32.3525 -95.3194 290° West 119 137 6,500  Descending Fort Worth Center
Fri 12:09:41 PM 32.3656 -95.3561 293° West 118 136 6,600 48 Climbing Fort Worth Center
Fri 12:10:43 PM 32.3822 -95.3903 300° West 119 137 6,600  Level Fort Worth Center
Fri 12:11:45 PM 32.3997 -95.4231 302° West 120 138 6,600  Level Fort Worth Center
Fri 12:12:47 PM 32.4172 -95.4564 302° West 119 137 6,600 48 Level Fort Worth Center
Fri 12:13:49 PM 32.4350 -95.4889 303° West 119 137 6,700  Climbing Fort Worth Center
Fri 12:14:51 PM 32.4519 -95.5239 300° West 121 139 6,600 -97 Descending Fort Worth Center
Fri 12:15:53 PM 32.4778 -95.5619 309° West 122 140 6,500 -48 Descending Fort Worth Center
Fri 12:16:55 PM 32.5019 -95.5917 314° West 123 142 6,500  Level Fort Worth Center
Fri 12:17:57 PM 32.5278 -95.6244 313° West 123 142 6,500  Level Fort Worth Center
Fri 12:19:00 PM 32.5456 -95.6503 309° West 118 136 6,500 48 Level Fort Worth Center
Fri 12:20:02 PM 32.5678 -95.6858 307° West 119 137 6,600 48 Climbing Fort Worth Center
Fri 12:21:04 PM 32.5886 -95.7203 306° West 119 137 6,600  Level Fort Worth Center
Fri 12:22:06 PM 32.6069 -95.7539 303° West 119 137 6,600  Level Fort Worth Center
Fri 12:23:08 PM 32.6278 -95.7881 306° West 119 137 6,600 -48 Level Fort Worth Center
Fri 12:24:10 PM 32.6525 -95.8167 316° Northwest 122 140 6,500 -48 Descending Fort Worth Center
Fri 12:25:12 PM 32.6789 -95.8481 315° West 123 142 6,500  Level Fort Worth Center
Fri 12:26:14 PM 32.6997 -95.8800 308° West 123 142 6,500  Level Fort Worth Center
Fri 12:27:16 PM 32.7197 -95.9161 303° West 123 142 6,500  Level Fort Worth Center
Fri 12:28:18 PM 32.7364 -95.9506 300° West 122 140 6,500 -48 Level Fort Worth Center
Fri 12:29:20 PM 32.7542 -95.9897 298° West 122 140 6,400  Descending Fort Worth Center
Fri 12:30:23 PM 32.7717 -96.0225 302° West 121 139 6,500 48 Climbing Fort Worth Center
Fri 12:31:25 PM 32.7922 -96.0550 307° West 122 140 6,500  Level Fort Worth Center
Fri 12:32:27 PM 32.8167 -96.0881 311° West 122 140 6,500  Level Fort Worth Center
Fri 12:33:29 PM 32.8375 -96.1208 307° West 122 140 6,500  Level Fort Worth Center
Fri 12:34:31 PM 32.8586 -96.1556 306° West 122 140 6,500  Level Fort Worth Center
Fri 12:35:33 PM 32.8769 -96.1889 303° West 122 140 6,500 -97 Level Fort Worth Center
Fri 12:36:35 PM 32.8881 -96.2289 288° West 120 138 6,300 -290 Descending Fort Worth Center
Fri 12:37:37 PM 32.8986 -96.2650 289° West 119 137 5,900 -532 Descending Fort Worth Center
Fri 12:38:39 PM 32.9039 -96.3069 279° West 118 136 5,200 -672 Descending Fort Worth Center
Fri 12:39:42 PM 32.9086 -96.3464 278° West 119 137 4,500 -336 Descending Fort Worth Center
Fri 12:40:44 PM 32.9131 -96.3867 277° West 116 133 4,500  Level Fort Worth Center
Fri 12:41:46 PM 32.9175 -96.4228 278° West 113 130 4,500 -290 Level Fort Worth Center
Fri 12:42:48 PM 32.9156 -96.4614 267° West 114 131 3,900 -484 Descending Fort Worth Center
Fri 12:43:50 PM 32.9167 -96.5025 272° West 117 135 3,500 -194 Descending Fort Worth Center
Fri 12:44:52 PM 32.9150 -96.5361 267° West 105 121 3,500  Level Fort Worth Center
Fri 12:45:54 PM 32.9131 -96.5739 267° West 105 121 3,500 -194 Level Fort Worth Center
Fri 12:46:56 PM 32.9131 -96.6119 270° West 114 131 3,100 -194 Descending Fort Worth Center
Fri 12:47:58 PM 32.9206 -96.6483 284° West 116 133 3,100 -145 Level Fort Worth Center
Fri 12:49:00 PM 32.9142 -96.6867 259° West 111 128 2,800 -288 Descending Fort Worth Center
Fri 12:50:03 PM 32.9158 -96.7244 273° West 116 133 2,500 -144 Descending Fort Worth Center
Fri 12:51:05 PM 32.9294 -96.7614 294° West 115 132 2,500 -97 Level Fort Worth Center
Fri 12:52:07 PM 32.9442 -96.7919 300° West 110 127 2,300 -339 Descending Fort Worth Center
Fri 12:53:09 PM 32.9667 -96.8164 318° Northwest 106 122 1,800 -339 Descending Fort Worth Center
Fri 12:54:11 PM 32.9950 -96.8292 339° North 106 122 1,600 -242 Descending Fort Worth Center
Fri 12:55:13 PM 32.9875 -96.8442 239° Southwest 80 92 1,300 -242 Descending Fort Worth Center
Fri 12:56:15 PM 32.9694 -96.8328 152° Southeast 72 83 1,100 -194 Descending Fort Worth Center

Login

Don't have an account? Register now (free) for customized features, flight alerts, and more!